sensor_id;sensor_type;location;lat;lon;timestamp;pressure;altitude;pressure_sealevel;temperature;humidity
54329;BME280;40710;51.120;13.136;2023-07-30T00:01:19;98784.19;;;20.63;64.24
54329;BME280;40710;51.120;13.136;2023-07-30T00:03:44;98784.25;;;20.71;64.06
54329;BME280;40710;51.120;13.136;2023-07-30T00:06:08;98789.16;;;20.57;64.42
54329;BME280;40710;51.120;13.136;2023-07-30T00:08:33;98788.66;;;20.28;65.00
54329;BME280;40710;51.120;13.136;2023-07-30T00:10:58;98780.63;;;20.54;64.80
54329;BME280;40710;51.120;13.136;2023-07-30T00:13:23;98781.16;;;20.23;65.49
54329;BME280;40710;51.120;13.136;2023-07-30T00:15:49;98782.66;;;19.99;66.51
54329;BME280;40710;51.120;13.136;2023-07-30T00:18:14;98796.78;;;19.74;67.19
54329;BME280;40710;51.120;13.136;2023-07-30T00:20:38;98775.38;;;20.36;64.96
54329;BME280;40710;51.120;13.136;2023-07-30T00:23:03;98786.06;;;20.10;66.48
54329;BME280;40710;51.120;13.136;2023-07-30T00:25:28;98774.53;;;20.35;65.29
54329;BME280;40710;51.120;13.136;2023-07-30T00:27:53;98778.13;;;20.00;66.33
54329;BME280;40710;51.120;13.136;2023-07-30T00:30:17;98776.56;;;19.89;66.64
54329;BME280;40710;51.120;13.136;2023-07-30T00:32:42;98778.88;;;20.10;65.81
54329;BME280;40710;51.120;13.136;2023-07-30T00:35:08;98778.03;;;19.83;66.79
54329;BME280;40710;51.120;13.136;2023-07-30T00:37:33;98773.69;;;20.09;66.14
54329;BME280;40710;51.120;13.136;2023-07-30T00:39:57;98778.94;;;19.92;66.54
54329;BME280;40710;51.120;13.136;2023-07-30T00:42:22;98778.50;;;19.79;67.06
54329;BME280;40710;51.120;13.136;2023-07-30T00:44:46;98772.50;;;20.03;66.43
54329;BME280;40710;51.120;13.136;2023-07-30T00:47:11;98778.63;;;19.95;66.62
54329;BME280;40710;51.120;13.136;2023-07-30T00:49:36;98763.22;;;20.42;65.23
54329;BME280;40710;51.120;13.136;2023-07-30T00:52:01;98762.81;;;20.28;65.32
54329;BME280;40710;51.120;13.136;2023-07-30T00:54:26;98771.50;;;20.30;65.29
54329;BME280;40710;51.120;13.136;2023-07-30T00:56:52;98770.75;;;20.46;64.24
54329;BME280;40710;51.120;13.136;2023-07-30T00:59:18;98770.19;;;20.34;65.13
54329;BME280;40710;51.120;13.136;2023-07-30T01:01:46;98768.47;;;20.25;65.19
54329;BME280;40710;51.120;13.136;2023-07-30T01:04:11;98764.19;;;20.06;65.71
54329;BME280;40710;51.120;13.136;2023-07-30T01:06:36;98775.97;;;19.77;66.36
54329;BME280;40710;51.120;13.136;2023-07-30T01:09:01;98781.22;;;19.69;66.73
54329;BME280;40710;51.120;13.136;2023-07-30T01:11:26;98773.81;;;19.99;65.78
54329;BME280;40710;51.120;13.136;2023-07-30T01:13:51;98770.66;;;20.03;66.14
54329;BME280;40710;51.120;13.136;2023-07-30T01:16:16;98772.03;;;20.08;65.51
54329;BME280;40710;51.120;13.136;2023-07-30T01:18:41;98775.06;;;20.39;64.39
54329;BME280;40710;51.120;13.136;2023-07-30T01:21:07;98761.34;;;20.68;63.88
54329;BME280;40710;51.120;13.136;2023-07-30T01:23:31;98761.81;;;21.06;62.32
54329;BME280;40710;51.120;13.136;2023-07-30T01:26:24;98777.38;;;20.34;64.48
54329;BME280;40710;51.120;13.136;2023-07-30T01:28:54;98776.13;;;20.20;64.74
54329;BME280;40710;51.120;13.136;2023-07-30T01:31:25;98775.63;;;20.25;64.46
54329;BME280;40710;51.120;13.136;2023-07-30T01:33:52;98790.28;;;19.40;66.51
54329;BME280;40710;51.120;13.136;2023-07-30T01:36:20;98793.31;;;19.99;65.93
54329;BME280;40710;51.120;13.136;2023-07-30T01:38:46;98799.41;;;20.10;65.31
54329;BME280;40710;51.120;13.136;2023-07-30T01:41:12;98803.72;;;20.37;64.53
54329;BME280;40710;51.120;13.136;2023-07-30T01:43:37;98798.19;;;20.30;64.34
54329;BME280;40710;51.120;13.136;2023-07-30T01:46:01;98787.94;;;20.17;64.81
54329;BME280;40710;51.120;13.136;2023-07-30T01:48:26;98796.44;;;20.21;65.00
54329;BME280;40710;51.120;13.136;2023-07-30T01:50:51;98806.28;;;19.94;65.93
54329;BME280;40710;51.120;13.136;2023-07-30T01:53:16;98801.03;;;20.11;65.36
54329;BME280;40710;51.120;13.136;2023-07-30T01:55:41;98792.41;;;20.43;64.41
54329;BME280;40710;51.120;13.136;2023-07-30T01:58:10;98787.38;;;20.66;63.78
54329;BME280;40710;51.120;13.136;2023-07-30T02:00:35;98781.44;;;20.46;64.08
54329;BME280;40710;51.120;13.136;2023-07-30T02:03:00;98793.41;;;20.42;64.34
54329;BME280;40710;51.120;13.136;2023-07-30T02:05:25;98791.16;;;20.55;64.10
54329;BME280;40710;51.120;13.136;2023-07-30T02:07:50;98783.44;;;20.78;63.12
54329;BME280;40710;51.120;13.136;2023-07-30T02:10:15;98780.84;;;20.95;62.92
54329;BME280;40710;51.120;13.136;2023-07-30T02:12:39;98777.97;;;20.88;63.00
54329;BME280;40710;51.120;13.136;2023-07-30T02:15:04;98771.50;;;20.99;62.89
54329;BME280;40710;51.120;13.136;2023-07-30T02:17:29;98765.38;;;21.23;62.29
54329;BME280;40710;51.120;13.136;2023-07-30T02:19:55;98765.72;;;21.45;61.82
54329;BME280;40710;51.120;13.136;2023-07-30T02:22:19;98763.03;;;21.28;62.14
54329;BME280;40710;51.120;13.136;2023-07-30T02:24:44;98770.66;;;21.07;63.44
54329;BME280;40710;51.120;13.136;2023-07-30T02:27:09;98767.03;;;21.24;62.78
54329;BME280;40710;51.120;13.136;2023-07-30T02:29:34;98766.72;;;21.36;62.70
54329;BME280;40710;51.120;13.136;2023-07-30T02:31:58;98786.47;;;19.97;66.41
54329;BME280;40710;51.120;13.136;2023-07-30T02:34:24;98773.13;;;20.57;66.04
54329;BME280;40710;51.120;13.136;2023-07-30T02:36:49;98769.47;;;21.01;64.85
54329;BME280;40710;51.120;13.136;2023-07-30T02:39:13;98775.25;;;20.80;65.97
54329;BME280;40710;51.120;13.136;2023-07-30T02:41:38;98765.94;;;21.51;63.26
54329;BME280;40710;51.120;13.136;2023-07-30T02:44:02;98758.22;;;21.48;63.03
54329;BME280;40710;51.120;13.136;2023-07-30T02:46:27;98760.38;;;21.94;62.18
54329;BME280;40710;51.120;13.136;2023-07-30T02:48:51;98779.56;;;21.40;64.02
54329;BME280;40710;51.120;13.136;2023-07-30T02:51:16;98772.25;;;22.08;61.58
54329;BME280;40710;51.120;13.136;2023-07-30T02:53:43;98771.28;;;22.96;59.17
54329;BME280;40710;51.120;13.136;2023-07-30T02:56:09;98798.31;;;20.89;65.21
54329;BME280;40710;51.120;13.136;2023-07-30T02:58:33;98788.22;;;21.09;64.84
54329;BME280;40710;51.120;13.136;2023-07-30T03:01:08;98788.25;;;21.34;64.10
54329;BME280;40710;51.120;13.136;2023-07-30T03:03:32;98792.09;;;21.23;64.88
54329;BME280;40710;51.120;13.136;2023-07-30T03:05:57;98789.50;;;21.73;63.38
54329;BME280;40710;51.120;13.136;2023-07-30T03:08:21;98786.63;;;21.90;63.14
54329;BME280;40710;51.120;13.136;2023-07-30T03:10:46;98790.50;;;21.71;63.12
54329;BME280;40710;51.120;13.136;2023-07-30T03:13:11;98806.34;;;20.89;66.52
54329;BME280;40710;51.120;13.136;2023-07-30T03:15:35;98814.59;;;20.70;66.86
54329;BME280;40710;51.120;13.136;2023-07-30T03:18:00;98804.59;;;21.23;65.84
54329;BME280;40710;51.120;13.136;2023-07-30T03:20:24;98808.66;;;20.84;67.43
54329;BME280;40710;51.120;13.136;2023-07-30T03:22:49;98810.78;;;20.46;69.35
54329;BME280;40710;51.120;13.136;2023-07-30T03:25:14;98803.91;;;20.70;68.04
54329;BME280;40710;51.120;13.136;2023-07-30T03:27:38;98797.34;;;21.49;65.84
54329;BME280;40710;51.120;13.136;2023-07-30T03:30:03;98782.44;;;21.96;64.05
54329;BME280;40710;51.120;13.136;2023-07-30T03:32:29;98776.78;;;21.75;64.85
54329;BME280;40710;51.120;13.136;2023-07-30T03:34:53;98778.28;;;21.61;65.61
54329;BME280;40710;51.120;13.136;2023-07-30T03:37:18;98767.75;;;21.92;64.59
54329;BME280;40710;51.120;13.136;2023-07-30T03:39:42;98767.25;;;21.88;64.74
54329;BME280;40710;51.120;13.136;2023-07-30T03:42:07;98773.06;;;21.43;65.16
54329;BME280;40710;51.120;13.136;2023-07-30T03:44:31;98776.72;;;21.25;65.33
54329;BME280;40710;51.120;13.136;2023-07-30T03:46:56;98782.16;;;21.58;65.09
54329;BME280;40710;51.120;13.136;2023-07-30T03:49:20;98779.44;;;21.66;64.67
54329;BME280;40710;51.120;13.136;2023-07-30T03:51:45;98782.91;;;21.34;66.38
54329;BME280;40710;51.120;13.136;2023-07-30T03:54:09;98789.56;;;21.30;65.67
54329;BME280;40710;51.120;13.136;2023-07-30T03:56:34;98778.13;;;21.62;65.62
54329;BME280;40710;51.120;13.136;2023-07-30T03:58:58;98780.13;;;21.85;64.42
54329;BME280;40710;51.120;13.136;2023-07-30T04:01:23;98781.63;;;21.71;64.84
54329;BME280;40710;51.120;13.136;2023-07-30T04:03:48;98779.94;;;22.11;63.65
54329;BME280;40710;51.120;13.136;2023-07-30T04:06:12;98783.31;;;21.88;64.58
54329;BME280;40710;51.120;13.136;2023-07-30T04:08:37;98785.13;;;21.71;64.71
54329;BME280;40710;51.120;13.136;2023-07-30T04:11:02;98784.13;;;21.81;64.73
54329;BME280;40710;51.120;13.136;2023-07-30T04:13:26;98796.84;;;21.70;64.74
54329;BME280;40710;51.120;13.136;2023-07-30T04:15:51;98812.94;;;21.11;67.26
54329;BME280;40710;51.120;13.136;2023-07-30T04:18:16;98800.84;;;21.50;65.78
54329;BME280;40710;51.120;13.136;2023-07-30T04:20:40;98801.53;;;21.85;65.20
54329;BME280;40710;51.120;13.136;2023-07-30T04:23:05;98804.13;;;21.36;66.34
54329;BME280;40710;51.120;13.136;2023-07-30T04:25:30;98798.19;;;21.58;65.24
54329;BME280;40710;51.120;13.136;2023-07-30T04:27:54;98803.97;;;21.45;65.91
54329;BME280;40710;51.120;13.136;2023-07-30T04:30:19;98795.84;;;21.80;65.02
54329;BME280;40710;51.120;13.136;2023-07-30T04:32:44;98796.66;;;21.80;64.74
54329;BME280;40710;51.120;13.136;2023-07-30T04:35:09;98796.66;;;21.56;65.42
54329;BME280;40710;51.120;13.136;2023-07-30T04:37:33;98800.34;;;21.55;65.92
54329;BME280;40710;51.120;13.136;2023-07-30T04:39:58;98794.16;;;21.62;65.69
54329;BME280;40710;51.120;13.136;2023-07-30T04:42:22;98798.50;;;21.55;65.78
54329;BME280;40710;51.120;13.136;2023-07-30T04:44:47;98806.50;;;21.63;65.46
54329;BME280;40710;51.120;13.136;2023-07-30T04:47:11;98813.31;;;21.25;66.84
54329;BME280;40710;51.120;13.136;2023-07-30T04:49:36;98810.53;;;21.51;66.35
54329;BME280;40710;51.120;13.136;2023-07-30T04:52:01;98829.94;;;21.53;66.32
54329;BME280;40710;51.120;13.136;2023-07-30T04:54:26;98814.91;;;21.85;65.33
54329;BME280;40710;51.120;13.136;2023-07-30T04:56:50;98813.75;;;21.79;65.70
54329;BME280;40710;51.120;13.136;2023-07-30T04:59:15;98812.72;;;22.05;64.64
54329;BME280;40710;51.120;13.136;2023-07-30T05:01:39;98806.38;;;22.06;64.85
54329;BME280;40710;51.120;13.136;2023-07-30T05:04:04;98809.22;;;22.13;64.54
54329;BME280;40710;51.120;13.136;2023-07-30T05:06:29;98821.41;;;22.07;65.24
54329;BME280;40710;51.120;13.136;2023-07-30T05:08:54;98819.22;;;22.19;64.63
54329;BME280;40710;51.120;13.136;2023-07-30T05:11:18;98827.91;;;22.21;64.68
54329;BME280;40710;51.120;13.136;2023-07-30T05:13:43;98826.75;;;22.32;64.71
54329;BME280;40710;51.120;13.136;2023-07-30T05:16:08;98829.75;;;22.20;65.01
54329;BME280;40710;51.120;13.136;2023-07-30T05:18:33;98825.19;;;22.62;64.40
54329;BME280;40710;51.120;13.136;2023-07-30T05:20:57;98828.25;;;22.42;64.03
54329;BME280;40710;51.120;13.136;2023-07-30T05:23:22;98821.47;;;22.63;63.59
54329;BME280;40710;51.120;13.136;2023-07-30T05:25:47;98819.25;;;22.83;63.15
54329;BME280;40710;51.120;13.136;2023-07-30T05:28:12;98820.41;;;22.80;63.23
54329;BME280;40710;51.120;13.136;2023-07-30T05:30:37;98840.22;;;22.71;64.52
54329;BME280;40710;51.120;13.136;2023-07-30T05:33:01;98832.75;;;22.98;63.41
54329;BME280;40710;51.120;13.136;2023-07-30T05:35:26;98837.47;;;22.88;63.69
54329;BME280;40710;51.120;13.136;2023-07-30T05:37:51;98840.53;;;22.84;63.15
54329;BME280;40710;51.120;13.136;2023-07-30T05:40:15;98839.09;;;23.05;62.24
54329;BME280;40710;51.120;13.136;2023-07-30T05:42:40;98839.75;;;22.59;63.51
54329;BME280;40710;51.120;13.136;2023-07-30T05:45:05;98842.63;;;22.97;63.16
54329;BME280;40710;51.120;13.136;2023-07-30T05:47:29;98851.38;;;22.27;64.74
54329;BME280;40710;51.120;13.136;2023-07-30T05:49:54;98841.22;;;22.70;63.56
54329;BME280;40710;51.120;13.136;2023-07-30T05:52:19;98849.50;;;22.27;64.61
54329;BME280;40710;51.120;13.136;2023-07-30T05:54:43;98855.34;;;22.48;63.65
54329;BME280;40710;51.120;13.136;2023-07-30T05:57:08;98855.31;;;22.56;64.05
54329;BME280;40710;51.120;13.136;2023-07-30T05:59:33;98854.84;;;23.00;62.78
54329;BME280;40710;51.120;13.136;2023-07-30T06:02:02;98851.66;;;22.96;62.45
54329;BME280;40710;51.120;13.136;2023-07-30T06:04:27;98848.31;;;22.22;64.59
54329;BME280;40710;51.120;13.136;2023-07-30T06:06:52;98851.00;;;22.46;63.66
54329;BME280;40710;51.120;13.136;2023-07-30T06:09:17;98853.47;;;23.12;62.58
54329;BME280;40710;51.120;13.136;2023-07-30T06:11:41;98856.84;;;22.50;64.13
54329;BME280;40710;51.120;13.136;2023-07-30T06:16:31;98853.75;;;22.86;63.58
54329;BME280;40710;51.120;13.136;2023-07-30T06:18:56;98865.06;;;22.32;64.34
54329;BME280;40710;51.120;13.136;2023-07-30T06:21:20;98879.25;;;22.49;65.66
54329;BME280;40710;51.120;13.136;2023-07-30T06:23:45;98866.03;;;22.64;64.23
54329;BME280;40710;51.120;13.136;2023-07-30T06:26:10;98869.34;;;22.66;64.93
54329;BME280;40710;51.120;13.136;2023-07-30T06:28:35;98860.66;;;22.56;64.26
54329;BME280;40710;51.120;13.136;2023-07-30T06:31:01;98866.59;;;23.07;63.41
54329;BME280;40710;51.120;13.136;2023-07-30T06:33:25;98858.53;;;23.07;63.12
54329;BME280;40710;51.120;13.136;2023-07-30T06:35:50;98855.13;;;23.76;60.87
54329;BME280;40710;51.120;13.136;2023-07-30T06:38:15;98857.81;;;23.53;62.26
54329;BME280;40710;51.120;13.136;2023-07-30T06:40:40;98855.75;;;23.86;61.20
54329;BME280;40710;51.120;13.136;2023-07-30T06:43:04;98849.53;;;24.09;60.69
54329;BME280;40710;51.120;13.136;2023-07-30T06:45:29;98850.19;;;24.11;60.63
54329;BME280;40710;51.120;13.136;2023-07-30T06:47:54;98854.34;;;24.13;60.73
54329;BME280;40710;51.120;13.136;2023-07-30T06:50:18;98844.72;;;24.57;59.29
54329;BME280;40710;51.120;13.136;2023-07-30T06:52:44;98858.88;;;24.13;60.05
54329;BME280;40710;51.120;13.136;2023-07-30T06:55:09;98858.19;;;24.34;60.10
54329;BME280;40710;51.120;13.136;2023-07-30T06:57:33;98870.81;;;23.33;62.43
54329;BME280;40710;51.120;13.136;2023-07-30T06:59:59;98886.41;;;23.60;62.24
54329;BME280;40710;51.120;13.136;2023-07-30T07:02:24;98866.00;;;24.06;60.39
54329;BME280;40710;51.120;13.136;2023-07-30T07:04:49;98868.25;;;23.71;60.70
54329;BME280;40710;51.120;13.136;2023-07-30T07:07:14;98885.88;;;23.34;62.54
54329;BME280;40710;51.120;13.136;2023-07-30T07:09:39;98869.78;;;24.11;59.88
54329;BME280;40710;51.120;13.136;2023-07-30T07:12:03;98876.31;;;23.39;61.37
54329;BME280;40710;51.120;13.136;2023-07-30T07:14:28;98865.56;;;24.55;58.98
54329;BME280;40710;51.120;13.136;2023-07-30T07:16:54;98858.50;;;25.14;57.45
54329;BME280;40710;51.120;13.136;2023-07-30T07:19:20;98871.59;;;24.72;59.15
54329;BME280;40710;51.120;13.136;2023-07-30T07:21:44;98853.97;;;24.99;57.54
54329;BME280;40710;51.120;13.136;2023-07-30T07:24:09;98847.88;;;25.42;56.27
54329;BME280;40710;51.120;13.136;2023-07-30T07:26:34;98850.44;;;24.84;56.80
54329;BME280;40710;51.120;13.136;2023-07-30T07:28:58;98845.31;;;25.34;57.17
54329;BME280;40710;51.120;13.136;2023-07-30T07:31:23;98850.13;;;25.38;56.35
54329;BME280;40710;51.120;13.136;2023-07-30T07:33:48;98843.44;;;25.92;55.30
54329;BME280;40710;51.120;13.136;2023-07-30T07:36:12;98849.47;;;25.73;55.86
54329;BME280;40710;51.120;13.136;2023-07-30T07:38:38;98843.44;;;25.92;53.97
54329;BME280;40710;51.120;13.136;2023-07-30T07:41:03;98856.31;;;25.75;53.81
54329;BME280;40710;51.120;13.136;2023-07-30T07:43:27;98839.59;;;26.01;52.35
54329;BME280;40710;51.120;13.136;2023-07-30T07:45:52;98853.59;;;25.54;53.61
54329;BME280;40710;51.120;13.136;2023-07-30T07:48:17;98859.91;;;25.82;53.00
54329;BME280;40710;51.120;13.136;2023-07-30T07:50:41;98860.66;;;25.76;52.26
54329;BME280;40710;51.120;13.136;2023-07-30T07:53:06;98853.88;;;25.59;52.90
54329;BME280;40710;51.120;13.136;2023-07-30T07:55:30;98851.25;;;25.65;52.77
54329;BME280;40710;51.120;13.136;2023-07-30T07:57:55;98866.31;;;26.03;52.45
54329;BME280;40710;51.120;13.136;2023-07-30T08:00:19;98874.91;;;25.92;53.10
54329;BME280;40710;51.120;13.136;2023-07-30T08:02:44;98853.09;;;26.30;52.67
54329;BME280;40710;51.120;13.136;2023-07-30T08:05:09;98846.38;;;27.24;51.68
54329;BME280;40710;51.120;13.136;2023-07-30T08:07:33;98860.06;;;25.59;54.06
54329;BME280;40710;51.120;13.136;2023-07-30T08:09:58;98853.78;;;25.31;54.33
54329;BME280;40710;51.120;13.136;2023-07-30T08:12:23;98851.84;;;25.82;52.79
54329;BME280;40710;51.120;13.136;2023-07-30T08:14:47;98834.31;;;26.71;51.25
54329;BME280;40710;51.120;13.136;2023-07-30T08:17:12;98841.53;;;26.36;52.50
54329;BME280;40710;51.120;13.136;2023-07-30T08:19:37;98839.22;;;26.33;52.06
54329;BME280;40710;51.120;13.136;2023-07-30T08:22:01;98847.06;;;26.28;52.74
54329;BME280;40710;51.120;13.136;2023-07-30T08:24:27;98859.69;;;25.41;54.36
54329;BME280;40710;51.120;13.136;2023-07-30T08:26:52;98855.72;;;25.80;53.24
54329;BME280;40710;51.120;13.136;2023-07-30T08:29:17;98850.88;;;26.40;53.24
54329;BME280;40710;51.120;13.136;2023-07-30T08:31:41;98859.88;;;25.39;55.09
54329;BME280;40710;51.120;13.136;2023-07-30T08:34:06;98849.16;;;26.04;53.10
54329;BME280;40710;51.120;13.136;2023-07-30T08:36:30;98858.22;;;25.08;55.80
54329;BME280;40710;51.120;13.136;2023-07-30T08:38:55;98872.50;;;24.64;56.15
54329;BME280;40710;51.120;13.136;2023-07-30T08:41:20;98863.09;;;25.71;54.30
54329;BME280;40710;51.120;13.136;2023-07-30T08:43:45;98852.88;;;26.03;53.25
54329;BME280;40710;51.120;13.136;2023-07-30T08:46:13;98832.81;;;26.62;52.80
54329;BME280;40710;51.120;13.136;2023-07-30T08:48:37;98845.59;;;26.53;52.30
54329;BME280;40710;51.120;13.136;2023-07-30T08:51:02;98859.59;;;26.14;53.89
54329;BME280;40710;51.120;13.136;2023-07-30T08:53:27;98851.91;;;26.39;52.52
54329;BME280;40710;51.120;13.136;2023-07-30T08:55:54;98833.63;;;26.63;50.95
54329;BME280;40710;51.120;13.136;2023-07-30T08:58:19;98845.19;;;26.85;51.60
54329;BME280;40710;51.120;13.136;2023-07-30T09:00:46;98851.81;;;26.26;52.54
54329;BME280;40710;51.120;13.136;2023-07-30T09:03:15;98872.44;;;25.75;53.21
54329;BME280;40710;51.120;13.136;2023-07-30T09:05:41;98857.72;;;25.50;54.03
54329;BME280;40710;51.120;13.136;2023-07-30T09:08:06;98856.44;;;25.67;54.17
54329;BME280;40710;51.120;13.136;2023-07-30T09:10:31;98861.41;;;24.97;55.61
54329;BME280;40710;51.120;13.136;2023-07-30T09:12:57;98851.06;;;25.67;54.04
54329;BME280;40710;51.120;13.136;2023-07-30T09:15:32;98854.97;;;25.64;54.57
54329;BME280;40710;51.120;13.136;2023-07-30T09:17:58;98845.28;;;25.92;53.88
54329;BME280;40710;51.120;13.136;2023-07-30T09:20:23;98861.75;;;25.09;56.23
54329;BME280;40710;51.120;13.136;2023-07-30T09:22:47;98857.00;;;25.26;56.08
54329;BME280;40710;51.120;13.136;2023-07-30T09:25:14;98852.53;;;26.13;54.34
54329;BME280;40710;51.120;13.136;2023-07-30T09:27:41;98856.53;;;25.74;55.05
54329;BME280;40710;51.120;13.136;2023-07-30T09:30:06;98852.94;;;26.38;52.70
54329;BME280;40710;51.120;13.136;2023-07-30T09:32:33;98846.47;;;26.60;52.52
54329;BME280;40710;51.120;13.136;2023-07-30T09:35:09;98866.50;;;25.58;54.69
54329;BME280;40710;51.120;13.136;2023-07-30T09:37:39;98857.53;;;25.73;54.87
54329;BME280;40710;51.120;13.136;2023-07-30T09:40:09;98838.06;;;26.42;52.11
54329;BME280;40710;51.120;13.136;2023-07-30T09:42:35;98838.06;;;26.42;52.05
54329;BME280;40710;51.120;13.136;2023-07-30T09:45:02;98827.78;;;27.35;49.15
54329;BME280;40710;51.120;13.136;2023-07-30T09:47:27;98837.66;;;26.45;51.42
54329;BME280;40710;51.120;13.136;2023-07-30T09:49:53;98824.97;;;28.37;46.55
54329;BME280;40710;51.120;13.136;2023-07-30T09:52:18;98838.50;;;28.04;47.75
54329;BME280;40710;51.120;13.136;2023-07-30T09:54:43;98844.91;;;27.89;48.38
54329;BME280;40710;51.120;13.136;2023-07-30T09:57:09;98847.00;;;27.26;49.08
54329;BME280;40710;51.120;13.136;2023-07-30T09:59:33;98847.28;;;27.38;48.32
54329;BME280;40710;51.120;13.136;2023-07-30T10:02:00;98839.81;;;27.40;48.13
54329;BME280;40710;51.120;13.136;2023-07-30T10:04:26;98831.59;;;27.61;46.00
54329;BME280;40710;51.120;13.136;2023-07-30T10:06:59;98848.97;;;27.39;46.67
54329;BME280;40710;51.120;13.136;2023-07-30T10:09:30;98836.22;;;28.01;45.40
54329;BME280;40710;51.120;13.136;2023-07-30T10:11:59;98830.34;;;28.57;45.12
54329;BME280;40710;51.120;13.136;2023-07-30T10:14:26;98836.91;;;27.34;46.50
54329;BME280;40710;51.120;13.136;2023-07-30T10:16:55;98843.84;;;27.09;46.55
54329;BME280;40710;51.120;13.136;2023-07-30T10:19:28;98832.19;;;27.02;45.04
54329;BME280;40710;51.120;13.136;2023-07-30T10:21:58;98837.72;;;27.28;45.21
54329;BME280;40710;51.120;13.136;2023-07-30T10:24:25;98832.00;;;27.65;44.11
54329;BME280;40710;51.120;13.136;2023-07-30T10:26:50;98825.59;;;29.11;42.62
54329;BME280;40710;51.120;13.136;2023-07-30T10:29:16;98836.41;;;28.33;43.77
54329;BME280;40710;51.120;13.136;2023-07-30T10:31:43;98833.31;;;28.02;43.07
54329;BME280;40710;51.120;13.136;2023-07-30T10:34:11;98827.88;;;28.36;42.65
54329;BME280;40710;51.120;13.136;2023-07-30T10:41:40;98811.72;;;29.46;39.99
54329;BME280;40710;51.120;13.136;2023-07-30T10:44:05;98827.13;;;28.94;40.57
54329;BME280;40710;51.120;13.136;2023-07-30T10:46:30;98813.84;;;29.69;38.30
54329;BME280;40710;51.120;13.136;2023-07-30T10:48:54;98831.56;;;28.75;40.30
54329;BME280;40710;51.120;13.136;2023-07-30T10:51:20;98833.47;;;27.87;41.73
54329;BME280;40710;51.120;13.136;2023-07-30T10:53:49;98838.47;;;27.90;41.73
54329;BME280;40710;51.120;13.136;2023-07-30T10:56:22;98836.81;;;26.73;43.60
54329;BME280;40710;51.120;13.136;2023-07-30T10:58:51;98838.09;;;27.94;42.13
54329;BME280;40710;51.120;13.136;2023-07-30T11:01:16;98833.84;;;27.64;43.14
54329;BME280;40710;51.120;13.136;2023-07-30T11:03:40;98821.16;;;28.78;41.19
54329;BME280;40710;51.120;13.136;2023-07-30T11:06:05;98809.78;;;29.53;39.18
54329;BME280;40710;51.120;13.136;2023-07-30T11:08:40;98816.50;;;29.83;40.10
54329;BME280;40710;51.120;13.136;2023-07-30T11:11:07;98801.47;;;31.11;37.46
54329;BME280;40710;51.120;13.136;2023-07-30T11:13:40;98807.28;;;30.41;37.67
54329;BME280;40710;51.120;13.136;2023-07-30T11:16:08;98808.50;;;29.94;38.44
54329;BME280;40710;51.120;13.136;2023-07-30T11:18:33;98801.56;;;30.67;35.43
54329;BME280;40710;51.120;13.136;2023-07-30T11:21:07;98810.53;;;30.24;35.64
54329;BME280;40710;51.120;13.136;2023-07-30T11:23:33;98810.41;;;30.38;36.06
54329;BME280;40710;51.120;13.136;2023-07-30T11:25:59;98793.13;;;30.76;35.50
54329;BME280;40710;51.120;13.136;2023-07-30T11:28:28;98796.50;;;30.27;36.24
54329;BME280;40710;51.120;13.136;2023-07-30T11:30:53;98798.84;;;31.04;36.60
54329;BME280;40710;51.120;13.136;2023-07-30T11:33:19;98789.25;;;32.28;33.29
54329;BME280;40710;51.120;13.136;2023-07-30T11:35:44;98800.56;;;30.62;35.71
54329;BME280;40710;51.120;13.136;2023-07-30T11:38:08;98792.31;;;30.94;34.83
54329;BME280;40710;51.120;13.136;2023-07-30T11:40:35;98784.63;;;32.52;32.51
54329;BME280;40710;51.120;13.136;2023-07-30T11:42:59;98772.69;;;32.06;33.17
54329;BME280;40710;51.120;13.136;2023-07-30T11:45:24;98780.44;;;30.88;34.25
54329;BME280;40710;51.120;13.136;2023-07-30T11:47:49;98785.06;;;30.87;34.66
54329;BME280;40710;51.120;13.136;2023-07-30T11:50:14;98769.63;;;31.18;33.88
54329;BME280;40710;51.120;13.136;2023-07-30T11:52:55;98771.50;;;31.90;33.60
54329;BME280;40710;51.120;13.136;2023-07-30T11:55:21;98784.59;;;29.21;35.72
54329;BME280;40710;51.120;13.136;2023-07-30T11:57:47;98785.53;;;28.95;36.41
54329;BME280;40710;51.120;13.136;2023-07-30T12:00:12;98775.50;;;31.03;34.08
54329;BME280;40710;51.120;13.136;2023-07-30T12:02:37;98770.50;;;30.45;33.96
54329;BME280;40710;51.120;13.136;2023-07-30T12:05:02;98770.38;;;30.58;35.01
54329;BME280;40710;51.120;13.136;2023-07-30T12:07:28;98768.38;;;30.84;34.25
54329;BME280;40710;51.120;13.136;2023-07-30T12:09:53;98765.50;;;31.16;34.73
54329;BME280;40710;51.120;13.136;2023-07-30T12:12:17;98769.44;;;30.64;34.31
54329;BME280;40710;51.120;13.136;2023-07-30T12:17:12;98777.59;;;30.64;35.25
54329;BME280;40710;51.120;13.136;2023-07-30T12:19:37;98774.28;;;30.99;34.54
54329;BME280;40710;51.120;13.136;2023-07-30T12:22:02;98776.63;;;30.15;34.45
54329;BME280;40710;51.120;13.136;2023-07-30T12:24:27;98766.53;;;30.47;34.20
54329;BME280;40710;51.120;13.136;2023-07-30T12:26:51;98765.66;;;30.84;35.58
54329;BME280;40710;51.120;13.136;2023-07-30T12:29:16;98763.19;;;31.61;33.34
54329;BME280;40710;51.120;13.136;2023-07-30T12:31:41;98757.03;;;31.24;34.32
54329;BME280;40710;51.120;13.136;2023-07-30T12:34:05;98759.75;;;30.75;34.23
54329;BME280;40710;51.120;13.136;2023-07-30T12:36:30;98769.28;;;29.72;37.42
54329;BME280;40710;51.120;13.136;2023-07-30T12:38:55;98766.69;;;29.84;36.23
54329;BME280;40710;51.120;13.136;2023-07-30T12:41:22;98759.56;;;29.89;35.86
54329;BME280;40710;51.120;13.136;2023-07-30T12:43:54;98757.56;;;29.46;37.18
54329;BME280;40710;51.120;13.136;2023-07-30T12:46:20;98754.38;;;29.88;36.46
54329;BME280;40710;51.120;13.136;2023-07-30T12:48:45;98751.19;;;29.91;36.04
54329;BME280;40710;51.120;13.136;2023-07-30T12:51:09;98757.31;;;29.86;37.07